createdAt,value
2022-07-26T00:01:01.552Z,100160.09
2022-07-26T00:03:29.358Z,100159.00
2022-07-26T00:05:57.155Z,100169.50
2022-07-26T00:08:24.842Z,100160.28
2022-07-26T00:10:53.077Z,100166.69
2022-07-26T00:13:21.738Z,100182.78
2022-07-26T00:15:52.750Z,100180.78
2022-07-26T00:18:20.787Z,100189.63
2022-07-26T00:20:51.612Z,100196.50
2022-07-26T00:23:19.787Z,100203.31
2022-07-26T00:25:47.526Z,100196.13
2022-07-26T00:28:15.378Z,100209.75
2022-07-26T00:30:43.323Z,100219.78
2022-07-26T00:33:11.034Z,100219.41
2022-07-26T00:35:38.802Z,100221.78
2022-07-26T00:38:06.446Z,100236.22
2022-07-26T00:40:35.538Z,100231.41
2022-07-26T00:43:03.539Z,100224.59
2022-07-26T00:45:31.185Z,100227.75
2022-07-26T00:47:58.835Z,100231.34
2022-07-26T00:50:26.738Z,100226.53
2022-07-26T00:52:55.259Z,100224.16
2022-07-26T00:55:22.991Z,100225.31
2022-07-26T00:57:52.095Z,100222.13
2022-07-26T01:00:23.781Z,100219.66
2022-07-26T01:02:51.757Z,100218.03
2022-07-26T01:05:19.611Z,100210.03
2022-07-26T01:07:48.636Z,100211.25
2022-07-26T01:10:16.447Z,100208.03
2022-07-26T01:12:44.589Z,100206.03
2022-07-26T01:15:14.594Z,100204.38
2022-07-26T01:17:43.176Z,100205.19
2022-07-26T01:20:13.103Z,100203.97
2022-07-26T01:22:41.579Z,100203.53
2022-07-26T01:25:09.800Z,100207.16
2022-07-26T01:27:39.748Z,100191.97
2022-07-26T01:30:10.570Z,100201.19
2022-07-26T01:32:38.847Z,100200.81
2022-07-26T01:35:08.181Z,100198.41
2022-07-26T01:37:36.103Z,100199.97
2022-07-26T01:40:04.780Z,100195.13
2022-07-26T01:42:33.462Z,100195.56
2022-07-26T01:45:01.148Z,100201.56
2022-07-26T01:47:29.009Z,100191.13
2022-07-26T01:49:56.710Z,100189.50
2022-07-26T01:52:24.350Z,100193.50
2022-07-26T01:54:52.144Z,100188.69
2022-07-26T01:57:19.890Z,100188.28
2022-07-26T01:59:47.602Z,100185.97
2022-07-26T02:02:15.322Z,100187.16
2022-07-26T02:05:02.073Z,100189.59
2022-07-26T02:07:32.593Z,100185.97
2022-07-26T02:10:00.984Z,100181.94
2022-07-26T02:12:28.797Z,100183.53
2022-07-26T02:14:56.498Z,100178.28
2022-07-26T02:17:24.288Z,100177.44
2022-07-26T02:19:52.484Z,100187.47
2022-07-26T02:22:20.455Z,100193.50
2022-07-26T02:24:49.120Z,100193.13
2022-07-26T02:27:17.345Z,100186.28
2022-07-26T02:29:45.549Z,100181.06
2022-07-26T02:32:13.487Z,100177.44
2022-07-26T02:34:41.362Z,100177.81
2022-07-26T02:37:09.081Z,100185.81
2022-07-26T02:39:36.745Z,100199.03
2022-07-26T02:42:04.630Z,100184.22
2022-07-26T02:44:32.392Z,100189.34
2022-07-26T02:47:00.164Z,100189.34
2022-07-26T02:49:27.996Z,100193.69
2022-07-26T02:51:55.704Z,100189.28
2022-07-26T02:54:24.036Z,100184.44
2022-07-26T02:56:51.994Z,100182.81
2022-07-26T02:59:19.748Z,100184.47
2022-07-26T03:01:47.584Z,100188.88
2022-07-26T03:04:15.412Z,100187.69
2022-07-26T03:06:43.109Z,100188.47
2022-07-26T03:09:11.017Z,100184.88
2022-07-26T03:11:38.888Z,100183.69
2022-07-26T03:14:06.922Z,100182.00
2022-07-26T03:16:35.112Z,100174.47
2022-07-26T03:19:02.897Z,100186.47
2022-07-26T03:21:30.633Z,100174.06
2022-07-26T03:23:58.352Z,100175.28
2022-07-26T03:26:26.088Z,100177.25
2022-07-26T03:28:54.016Z,100172.50
2022-07-26T03:31:23.600Z,100169.28
2022-07-26T03:33:51.430Z,100181.19
2022-07-26T03:36:19.158Z,100178.81
2022-07-26T03:38:46.863Z,100180.09
2022-07-26T03:41:14.742Z,100172.50
2022-07-26T03:43:42.447Z,100174.81
2022-07-26T03:46:10.265Z,100187.94
2022-07-26T03:48:38.123Z,100175.81
2022-07-26T03:51:05.990Z,100169.66
2022-07-26T03:53:34.696Z,100175.66
2022-07-26T03:56:21.517Z,100175.16
2022-07-26T03:58:49.365Z,100179.19
2022-07-26T04:01:17.611Z,100182.41
2022-07-26T04:03:47.698Z,100179.22
2022-07-26T04:06:16.384Z,100170.81
2022-07-26T04:08:44.331Z,100174.59
2022-07-26T04:11:12.189Z,100184.88
2022-07-26T04:13:40.169Z,100184.97
2022-07-26T04:16:08.141Z,100190.88
2022-07-26T04:18:35.859Z,100181.72
2022-07-26T04:21:04.392Z,100179.38
2022-07-26T04:23:32.113Z,100180.91
2022-07-26T04:25:59.849Z,100189.56
2022-07-26T04:28:29.109Z,100189.22
2022-07-26T04:30:59.010Z,100188.50
2022-07-26T04:33:27.621Z,100204.94
2022-07-26T04:35:55.386Z,100201.72
2022-07-26T04:38:23.115Z,100196.94
2022-07-26T04:40:52.199Z,100207.34
2022-07-26T04:43:20.096Z,100203.34
2022-07-26T04:45:48.367Z,100201.72
2022-07-26T04:48:16.601Z,100200.16
2022-07-26T04:50:44.468Z,100198.53
2022-07-26T04:53:12.223Z,100197.34
2022-07-26T04:55:40.948Z,100203.34
2022-07-26T04:58:10.131Z,100206.53
2022-07-26T05:00:56.786Z,100195.72
2022-07-26T05:03:26.196Z,100207.34
2022-07-26T05:05:53.942Z,100201.72
2022-07-26T05:08:21.747Z,100203.31
2022-07-26T05:10:55.223Z,100200.56
2022-07-26T05:13:30.459Z,100195.31
2022-07-26T05:16:00.100Z,100192.94
2022-07-26T05:18:31.619Z,100197.31
2022-07-26T05:21:12.072Z,100198.53
2022-07-26T05:23:39.807Z,100196.06
2022-07-26T05:26:07.558Z,100200.03
2022-07-26T05:28:35.298Z,100192.75
2022-07-26T05:31:03.227Z,100200.03
2022-07-26T05:33:31.137Z,100196.41
2022-07-26T05:35:58.865Z,100191.59
2022-07-26T05:38:27.591Z,100200.41
2022-07-26T05:40:55.641Z,100204.84
2022-07-26T05:43:23.413Z,100198.03
2022-07-26T05:45:51.493Z,100202.38
2022-07-26T05:48:19.313Z,100200.38
2022-07-26T05:50:47.568Z,100205.53
2022-07-26T05:53:17.785Z,100203.47
2022-07-26T05:55:45.513Z,100209.03
2022-07-26T05:58:13.439Z,100209.41
2022-07-26T06:00:45.346Z,100203.38
2022-07-26T06:03:25.938Z,100206.88
2022-07-26T06:05:56.871Z,100199.25
2022-07-26T06:08:26.189Z,100202.09
2022-07-26T06:10:55.143Z,100214.94
2022-07-26T06:13:23.752Z,100217.38
2022-07-26T06:15:52.023Z,100207.63
2022-07-26T06:18:20.007Z,100222.81
2022-07-26T06:20:48.516Z,100224.31
2022-07-26T06:23:16.319Z,100225.75
2022-07-26T06:25:44.207Z,100222.09
2022-07-26T06:28:12.026Z,100217.56
2022-07-26T06:30:40.069Z,100220.03
2022-07-26T06:33:09.658Z,100216.72
2022-07-26T06:35:39.328Z,100210.25
2022-07-26T06:38:07.643Z,100218.34
2022-07-26T06:40:36.265Z,100208.00
2022-07-26T06:43:05.147Z,100207.09
2022-07-26T06:45:34.235Z,100215.63
2022-07-26T06:48:02.086Z,100211.91
2022-07-26T06:50:29.865Z,100213.56
2022-07-26T06:52:57.667Z,100211.31
2022-07-26T06:55:25.450Z,100210.06
2022-07-26T06:57:53.161Z,100216.41
2022-07-26T07:00:21.243Z,100208.63
2022-07-26T07:02:49.016Z,100207.41
2022-07-26T07:05:16.879Z,100213.22
2022-07-26T07:07:45.311Z,100214.63
2022-07-26T07:10:14.236Z,100209.66
2022-07-26T07:12:44.825Z,100207.34
2022-07-26T07:15:12.795Z,100218.47
2022-07-26T07:17:40.517Z,100221.69
2022-07-26T07:20:08.609Z,100213.81
2022-07-26T07:22:36.300Z,100213.97
2022-07-26T07:25:06.220Z,100216.72
2022-07-26T07:27:34.137Z,100206.06
2022-07-26T07:30:02.823Z,100204.47
2022-07-26T07:32:32.048Z,100201.28
2022-07-26T07:34:59.827Z,100207.53
2022-07-26T07:37:27.558Z,100203.53
2022-07-26T07:40:15.521Z,100199.38
2022-07-26T07:42:43.323Z,100206.94
2022-07-26T07:45:11.784Z,100205.66
2022-07-26T07:47:39.598Z,100202.84
2022-07-26T07:50:07.896Z,100203.91
2022-07-26T07:52:35.819Z,100207.78
2022-07-26T07:55:37.024Z,100201.22
2022-07-26T07:57:51.818Z,100205.69
2022-07-26T08:00:27.427Z,100206.47
2022-07-26T08:02:55.538Z,100205.00
2022-07-26T08:05:23.339Z,100204.75
2022-07-26T08:07:52.606Z,100201.81
2022-07-26T08:10:20.583Z,100202.53
2022-07-26T08:12:51.277Z,100201.47
2022-07-26T08:15:19.618Z,100197.00
2022-07-26T08:17:54.819Z,100188.53
2022-07-26T08:20:23.469Z,100195.16
2022-07-26T08:22:51.750Z,100186.09
2022-07-26T08:25:19.991Z,100183.63
2022-07-26T08:28:03.299Z,100184.88
2022-07-26T08:30:31.740Z,100180.38
2022-07-26T08:32:59.717Z,100179.91
2022-07-26T08:35:29.645Z,100183.84
2022-07-26T08:37:58.085Z,100182.78
2022-07-26T08:40:26.006Z,100178.72
2022-07-26T08:42:56.353Z,100182.88
2022-07-26T08:45:25.731Z,100181.25
2022-07-26T08:48:16.093Z,100185.94
2022-07-26T08:50:42.350Z,100184.25
2022-07-26T08:53:12.137Z,100179.34
2022-07-26T08:56:05.278Z,100183.00
2022-07-26T08:58:28.031Z,100195.47
2022-07-26T09:01:13.039Z,100183.88
2022-07-26T09:03:42.761Z,100182.28
2022-07-26T09:06:14.321Z,100184.66
2022-07-26T09:08:43.092Z,100186.69
2022-07-26T09:11:25.821Z,100180.75
2022-07-26T09:13:56.673Z,100182.16
2022-07-26T09:16:24.885Z,100184.94
2022-07-26T09:18:53.340Z,100179.19
2022-07-26T09:21:31.176Z,100190.31
2022-07-26T09:23:59.862Z,100183.41
2022-07-26T09:26:28.615Z,100188.72
2022-07-26T09:29:07.104Z,100179.66
2022-07-26T09:31:36.749Z,100181.94
2022-07-26T09:34:06.425Z,100177.25
2022-07-26T09:36:50.913Z,100186.22
2022-07-26T09:39:33.362Z,100190.06
2022-07-26T09:44:58.051Z,100174.44
2022-07-26T09:47:39.655Z,100177.84
2022-07-26T09:50:16.910Z,100179.88
2022-07-26T09:53:09.225Z,100177.75
2022-07-26T09:55:55.817Z,100188.53
2022-07-26T09:58:24.699Z,100187.06
2022-07-26T10:00:52.418Z,100185.59
2022-07-26T10:03:20.108Z,100184.31
2022-07-26T10:05:47.897Z,100187.72
2022-07-26T10:08:15.728Z,100184.09
2022-07-26T10:10:50.450Z,100187.53
2022-07-26T10:13:18.516Z,100181.69
2022-07-26T10:15:51.598Z,100193.72
2022-07-26T10:18:38.266Z,100187.38
2022-07-26T10:21:29.806Z,100195.69
2022-07-26T10:23:59.695Z,100196.72
2022-07-26T10:26:36.413Z,100193.38
2022-07-26T10:29:16.589Z,100188.53
2022-07-26T10:32:05.418Z,100191.69
2022-07-26T10:34:38.636Z,100188.19
2022-07-26T10:37:12.105Z,100184.72
2022-07-26T10:39:39.841Z,100190.28
2022-07-26T10:42:10.650Z,100187.16
2022-07-26T10:44:42.098Z,100192.53
2022-07-26T10:47:15.674Z,100195.06
2022-07-26T10:49:50.577Z,100198.81
2022-07-26T10:52:21.156Z,100193.72
2022-07-26T10:55:00.069Z,100199.03
2022-07-26T10:57:27.762Z,100191.69
2022-07-26T10:59:57.607Z,100207.28
2022-07-26T11:02:32.636Z,100187.63
2022-07-26T11:05:03.688Z,100197.00
2022-07-26T11:07:32.113Z,100195.06
2022-07-26T11:10:01.331Z,100199.72
2022-07-26T11:12:29.137Z,100201.03
2022-07-26T11:14:56.816Z,100197.41
2022-07-26T11:17:29.408Z,100197.72
2022-07-26T11:19:58.030Z,100201.38
2022-07-26T11:22:33.469Z,100186.44
2022-07-26T11:25:01.454Z,100194.50
2022-07-26T11:27:29.496Z,100185.03
2022-07-26T11:30:06.269Z,100183.50
2022-07-26T11:32:34.138Z,100187.44
2022-07-26T11:35:07.039Z,100187.91
2022-07-26T11:37:34.830Z,100185.97
2022-07-26T11:40:02.618Z,100175.84
2022-07-26T11:42:30.494Z,100178.22
2022-07-26T11:44:58.454Z,100177.72
2022-07-26T11:47:26.802Z,100173.50
2022-07-26T11:50:14.242Z,100175.06
2022-07-26T11:52:42.918Z,100171.31
2022-07-26T11:55:10.682Z,100169.47
2022-07-26T11:57:38.607Z,100172.16
2022-07-26T12:00:07.197Z,100171.44
2022-07-26T12:02:41.157Z,100180.38
2022-07-26T12:05:21.507Z,100174.19
2022-07-26T12:08:03.045Z,100162.72
2022-07-26T12:10:31.100Z,100170.47
2022-07-26T12:13:10.705Z,100164.94
2022-07-26T12:15:49.516Z,100158.72
2022-07-26T12:18:28.865Z,100150.66
2022-07-26T12:21:05.138Z,100141.44
2022-07-26T12:23:44.156Z,100139.69
2022-07-26T12:26:23.456Z,100134.03
2022-07-26T12:28:51.696Z,100139.75
2022-07-26T12:31:29.591Z,100133.09
2022-07-26T12:33:58.124Z,100134.31
2022-07-26T12:36:29.479Z,100146.06
2022-07-26T12:39:00.967Z,100134.31
2022-07-26T12:41:37.725Z,100143.28
2022-07-26T12:44:08.785Z,100124.47
2022-07-26T12:46:37.290Z,100117.84
2022-07-26T12:49:05.875Z,100120.75
2022-07-26T12:51:35.216Z,100111.56
2022-07-26T12:54:06.449Z,100111.06
2022-07-26T12:56:35.163Z,100122.00
2022-07-26T12:59:04.530Z,100108.69
2022-07-26T13:01:32.931Z,100119.69
2022-07-26T13:04:01.438Z,100119.50
2022-07-26T13:06:33.116Z,100116.97
2022-07-26T13:09:01.249Z,100114.19
2022-07-26T13:11:29.567Z,100119.03
2022-07-26T13:13:57.899Z,100129.19
2022-07-26T13:16:26.103Z,100127.94
2022-07-26T13:19:06.111Z,100127.28
2022-07-26T13:21:41.485Z,100127.97
2022-07-26T13:24:10.846Z,100130.50
2022-07-26T13:26:41.071Z,100138.44
2022-07-26T13:29:09.614Z,100131.19
2022-07-26T13:31:38.197Z,100127.06
2022-07-26T13:34:06.704Z,100111.41
2022-07-26T13:36:35.128Z,100112.88
2022-07-26T13:39:04.336Z,100115.25
2022-07-26T13:41:32.340Z,100105.72
2022-07-26T13:44:04.197Z,100107.44
2022-07-26T13:46:33.583Z,100102.97
2022-07-26T13:49:04.175Z,100098.84
2022-07-26T13:51:58.624Z,100101.06
2022-07-26T13:54:32.512Z,100090.50
2022-07-26T13:57:02.133Z,100099.88
2022-07-26T13:59:30.982Z,100085.91
2022-07-26T14:01:59.276Z,100092.06
2022-07-26T14:04:29.042Z,100086.84
2022-07-26T14:06:57.401Z,100076.59
2022-07-26T14:09:25.803Z,100083.16
2022-07-26T14:11:53.983Z,100076.84
2022-07-26T14:14:25.812Z,100086.81
2022-07-26T14:16:54.096Z,100098.38
2022-07-26T14:19:22.243Z,100097.25
2022-07-26T14:21:59.421Z,100086.66
2022-07-26T14:24:29.059Z,100105.50
2022-07-26T14:26:59.501Z,100078.91
2022-07-26T14:29:28.627Z,100090.03
2022-07-26T14:31:59.557Z,100083.00
2022-07-26T14:34:28.819Z,100094.44
2022-07-26T14:36:57.533Z,100100.91
2022-07-26T14:39:25.635Z,100087.63
2022-07-26T14:41:53.823Z,100097.25
2022-07-26T14:44:22.357Z,100070.72
2022-07-26T14:46:51.049Z,100087.97
2022-07-26T14:49:44.029Z,100081.13
2022-07-26T14:52:38.978Z,100072.13
2022-07-26T14:55:07.925Z,100081.78
2022-07-26T14:57:39.427Z,100084.63
2022-07-26T15:00:17.239Z,100088.88
2022-07-26T15:02:48.843Z,100091.13
2022-07-26T15:05:20.362Z,100098.56
2022-07-26T15:07:55.158Z,100090.63
2022-07-26T15:10:30.381Z,100096.34
2022-07-26T15:13:04.751Z,100088.25
2022-07-26T15:15:37.349Z,100088.09
2022-07-26T15:18:05.386Z,100076.03
2022-07-26T15:20:33.493Z,100091.91
2022-07-26T15:23:01.923Z,100088.56
2022-07-26T15:25:29.892Z,100101.09
2022-07-26T15:27:59.123Z,100096.53
2022-07-26T15:30:28.455Z,100105.09
2022-07-26T15:32:59.524Z,100089.59
2022-07-26T15:35:27.762Z,100082.75
2022-07-26T15:37:55.897Z,100088.97
2022-07-26T15:40:23.843Z,100085.47
2022-07-26T15:42:52.914Z,100096.66
2022-07-26T15:45:22.621Z,100090.28
2022-07-26T15:47:56.265Z,100096.63
2022-07-26T15:50:31.265Z,100089.72
2022-07-26T15:53:00.784Z,100091.56
2022-07-26T15:55:28.914Z,100090.66
2022-07-26T15:57:56.915Z,100086.97
2022-07-26T16:00:25.021Z,100094.25
2022-07-26T16:02:53.038Z,100105.34
2022-07-26T16:05:21.036Z,100092.88
2022-07-26T16:07:49.054Z,100074.19
2022-07-26T16:10:17.186Z,100079.25
2022-07-26T16:12:46.336Z,100087.97
2022-07-26T16:15:15.782Z,100083.22
2022-07-26T16:17:43.859Z,100088.34
2022-07-26T16:20:11.995Z,100087.50
2022-07-26T16:22:41.962Z,100082.66
2022-07-26T16:25:14.034Z,100080.94
2022-07-26T16:27:43.687Z,100082.09
2022-07-26T16:30:14.056Z,100078.56
2022-07-26T16:32:48.447Z,100084.75
2022-07-26T16:35:18.650Z,100088.25
2022-07-26T16:37:47.887Z,100083.16
2022-07-26T16:40:20.782Z,100071.34
2022-07-26T16:42:49.725Z,100083.63
2022-07-26T16:45:21.983Z,100085.56
2022-07-26T16:48:17.566Z,100091.69
2022-07-26T16:50:45.868Z,100077.72
2022-07-26T16:53:14.004Z,100080.91
2022-07-26T16:55:43.470Z,100089.19
2022-07-26T16:58:12.070Z,100087.03
2022-07-26T17:00:40.555Z,100081.81
2022-07-26T17:03:08.539Z,100074.78
2022-07-26T17:05:36.585Z,100073.19
2022-07-26T17:08:05.259Z,100069.91
2022-07-26T17:10:33.359Z,100078.06
2022-07-26T17:13:01.599Z,100080.22
2022-07-26T17:15:29.684Z,100081.31
2022-07-26T17:17:57.859Z,100089.13
2022-07-26T17:20:28.191Z,100092.16
2022-07-26T17:22:56.172Z,100096.00
2022-07-26T17:25:24.759Z,100101.66
2022-07-26T17:27:53.424Z,100092.34
2022-07-26T17:30:21.787Z,100094.34
2022-07-26T17:32:50.441Z,100103.00
2022-07-26T17:35:47.410Z,100099.59
2022-07-26T17:38:17.855Z,100095.06
2022-07-26T17:40:46.099Z,100098.22
2022-07-26T17:43:15.233Z,100094.88
2022-07-26T17:45:43.308Z,100100.75
2022-07-26T17:48:11.632Z,100099.41
2022-07-26T17:50:39.751Z,100102.25
2022-07-26T17:53:07.924Z,100109.22
2022-07-26T17:55:36.104Z,100102.56
2022-07-26T17:58:04.254Z,100113.72
2022-07-26T18:00:32.251Z,100107.16
2022-07-26T18:03:00.419Z,100107.25
2022-07-26T18:05:34.925Z,100106.63
2022-07-26T18:08:04.480Z,100095.06
2022-07-26T18:10:32.905Z,100096.72
2022-07-26T18:13:00.954Z,100097.00
2022-07-26T18:15:30.685Z,100085.09
2022-07-26T18:17:59.417Z,100093.56
2022-07-26T18:20:28.625Z,100087.63
2022-07-26T18:22:56.687Z,100079.06
2022-07-26T18:25:24.947Z,100084.38
2022-07-26T18:27:53.960Z,100095.53
2022-07-26T18:30:22.067Z,100090.63
2022-07-26T18:32:50.027Z,100097.81
2022-07-26T18:35:19.920Z,100087.25
2022-07-26T18:37:48.185Z,100084.84
2022-07-26T18:40:17.367Z,100097.56
2022-07-26T18:42:45.889Z,100100.47
2022-07-26T18:45:14.213Z,100102.66
2022-07-26T18:47:42.682Z,100123.94
2022-07-26T18:50:12.260Z,100113.75
2022-07-26T18:52:45.923Z,100111.94
2022-07-26T18:55:14.903Z,100127.47
2022-07-26T18:57:44.459Z,100127.47
2022-07-26T19:00:17.205Z,100133.22
2022-07-26T19:02:46.779Z,100153.31
2022-07-26T19:05:16.871Z,100150.16
2022-07-26T19:07:45.989Z,100165.00
2022-07-26T19:10:14.458Z,100166.66
2022-07-26T19:12:45.381Z,100176.03
2022-07-26T19:15:16.804Z,100178.72
2022-07-26T19:17:45.308Z,100172.19
2022-07-26T19:20:14.115Z,100171.28
2022-07-26T19:22:44.341Z,100186.16
2022-07-26T19:25:15.004Z,100198.16
2022-07-26T19:27:44.144Z,100200.03
2022-07-26T19:30:12.793Z,100211.25
2022-07-26T19:32:40.994Z,100199.97
2022-07-26T19:35:09.975Z,100206.34
2022-07-26T19:37:37.832Z,100212.97
2022-07-26T19:40:06.661Z,100195.53
2022-07-26T19:42:34.802Z,100190.69
2022-07-26T19:45:03.009Z,100192.03
2022-07-26T19:47:31.319Z,100194.25
2022-07-26T19:49:59.277Z,100201.13
2022-07-26T19:52:27.663Z,100212.13
2022-07-26T19:54:57.064Z,100206.09
2022-07-26T19:57:27.738Z,100209.91
2022-07-26T19:59:56.497Z,100208.25
2022-07-26T20:02:25.067Z,100199.88
2022-07-26T20:04:55.720Z,100195.91
2022-07-26T20:07:25.276Z,100193.41
2022-07-26T20:09:54.566Z,100187.97
2022-07-26T20:12:23.594Z,100193.41
2022-07-26T20:14:54.374Z,100191.81
2022-07-26T20:17:23.517Z,100186.41
2022-07-26T20:19:53.528Z,100195.19
2022-07-26T20:22:24.030Z,100195.81
2022-07-26T20:24:58.949Z,100196.09
2022-07-26T20:27:28.793Z,100196.84
2022-07-26T20:30:00.886Z,100199.28
2022-07-26T20:32:30.524Z,100190.72
2022-07-26T20:34:58.929Z,100204.22
2022-07-26T20:37:27.211Z,100210.19
2022-07-26T20:39:58.825Z,100211.63
2022-07-26T20:42:29.781Z,100216.25
2022-07-26T20:45:01.362Z,100213.16
2022-07-26T20:47:30.134Z,100218.06
2022-07-26T20:50:02.987Z,100221.03
2022-07-26T20:52:31.570Z,100210.25
2022-07-26T20:55:00.520Z,100216.72
2022-07-26T20:57:28.495Z,100222.75
2022-07-26T20:59:56.511Z,100231.25
2022-07-26T21:02:25.004Z,100224.88
2022-07-26T21:04:53.457Z,100233.72
2022-07-26T21:07:21.692Z,100236.53
2022-07-26T21:09:50.036Z,100239.00
2022-07-26T21:12:19.817Z,100238.22
2022-07-26T21:14:51.192Z,100230.41
2022-07-26T21:17:19.908Z,100232.72
2022-07-26T21:19:48.101Z,100238.31
2022-07-26T21:22:16.118Z,100236.09
2022-07-26T21:24:44.607Z,100250.56
2022-07-26T21:27:14.759Z,100224.91
2022-07-26T21:29:42.893Z,100241.34
2022-07-26T21:32:11.333Z,100256.63
2022-07-26T21:34:39.275Z,100250.66
2022-07-26T21:37:07.260Z,100246.97
2022-07-26T21:39:36.529Z,100248.97
2022-07-26T21:42:04.689Z,100245.69
2022-07-26T21:44:33.035Z,100258.56
2022-07-26T21:47:01.394Z,100261.75
2022-07-26T21:49:32.703Z,100257.75
2022-07-26T21:52:00.828Z,100249.72
2022-07-26T21:54:31.078Z,100251.25
2022-07-26T21:57:07.577Z,100245.59
2022-07-26T21:59:36.418Z,100262.03
2022-07-26T22:02:09.851Z,100252.03
2022-07-26T22:04:40.022Z,100244.81
2022-07-26T22:07:13.440Z,100254.84
2022-07-26T22:09:42.187Z,100262.94
2022-07-26T22:12:12.758Z,100264.19
2022-07-26T22:14:41.533Z,100271.84
2022-07-26T22:17:10.675Z,100273.78
2022-07-26T22:19:39.198Z,100296.34
2022-07-26T22:22:07.293Z,100296.41
2022-07-26T22:24:35.443Z,100292.75
2022-07-26T22:27:03.474Z,100298.34
2022-07-26T22:29:39.968Z,100300.47
2022-07-26T22:32:08.355Z,100299.19
2022-07-26T22:34:36.225Z,100302.81
2022-07-26T22:37:04.239Z,100301.97
2022-07-26T22:39:32.139Z,100313.31
2022-07-26T22:42:16.598Z,100319.72
2022-07-26T22:44:44.562Z,100322.28
2022-07-26T22:47:12.523Z,100322.28
2022-07-26T22:49:44.296Z,100324.25
2022-07-26T22:52:14.761Z,100310.16
2022-07-26T22:54:44.613Z,100299.28
2022-07-26T22:57:13.011Z,100296.41
2022-07-26T22:59:41.149Z,100285.97
2022-07-26T23:02:09.262Z,100298.00
2022-07-26T23:04:37.468Z,100294.84
2022-07-26T23:07:05.416Z,100302.50
2022-07-26T23:09:33.418Z,100305.69
2022-07-26T23:12:05.191Z,100308.91
2022-07-26T23:14:35.391Z,100310.13
2022-07-26T23:17:04.302Z,100316.13
2022-07-26T23:19:32.671Z,100329.34
2022-07-26T23:22:00.805Z,100327.03
2022-07-26T23:24:28.716Z,100328.66
2022-07-26T23:26:56.812Z,100326.94
2022-07-26T23:29:24.848Z,100323.66
2022-07-26T23:31:52.923Z,100314.84
2022-07-26T23:34:20.801Z,100332.59
2022-07-26T23:36:48.622Z,100330.47
2022-07-26T23:39:16.573Z,100328.09
2022-07-26T23:41:44.471Z,100335.00
2022-07-26T23:44:12.274Z,100334.22
2022-07-26T23:46:40.097Z,100324.88
2022-07-26T23:49:08.368Z,100334.16
2022-07-26T23:51:36.410Z,100333.38
2022-07-26T23:54:04.303Z,100343.03
2022-07-26T23:56:33.488Z,100355.97
2022-07-26T23:59:01.398Z,100350.38
